Summit Station, Pennsylvania
Current Conditions -  °F | °C
As of 10:01 AM on Wednesday 26 Nov 2014 (Local Time) from KRDG Reporting Station
Light Snow Light Snow  
Wind Chill: 31°   Ceiling: 800
Heat Index: 35°   Visibility: 2mi
Dew Point: 32°   Wind: 5mph
Humidity: 89%   Direction: 20°NNE
Pressure: 30.08"   Gusts: NA
Location:  40.56°N, 76.2°W
Report Text: KRDG 261501Z 02004KT 2SM R36/5000VP6000FT -SNRA BR OVC008 02/00 A3008 RMK AO2 P0001 T00170000
Loading
Personal Weather Stations






























Interactive Weather Map New forecast layout! Learn more

10-Day Weather Forecast

Advertisements
Track Severe Weather on mobile